KSBY/SBY METAR and TAF weather

Enter ICAO airport designator
Station Type Date Time Source
KSBY METAR 2020/07/12 01:54 UTC NOAA

KSBY 120154Z 27004KT 10SM SCT110 26/22 A2976 RMK AO2 SLP077 T02610222


Station Type Date Time Source
KSBY Decoded METAR 2020/07/12 01:54 UTC NOAA

SALISBURY-WICOMICO CTY REG, MD, United States (KSBY) 38-20N 075-30W 19M
Jul 11, 2020 - 09:54 PM EDT / 2020.07.12 0154 UTC
Wind: from the W (270 degrees) at 5 MPH (4 KT):0
Visibility: 10 mile(s):0
Sky conditions: partly cloudy
Temperature: 79.0 F (26.1 C)
Dew Point: 72.0 F (22.2 C)
Relative Humidity: 79%
Pressure (altimeter): 29.76 in. Hg (1007 hPa)
ob: KSBY 120154Z 27004KT 10SM SCT110 26/22 A2976 RMK AO2 SLP077 T02610222
cycle: 2

Station Type Date Time Source
KSBY TAF 2020/07/11 18:24 UTC NOAA

TAF KSBY 111720Z 1118/1218 22007KT P6SM SCT025 BKN035
FM112200 VRB04KT P6SM SKC
FM121500 26007KT P6SM SCT150

Example: see airport list